Time;durP1;ratioP1;P1;durP2;ratioP2;P2;SDS_P1;SDS_P2;PMS_P1;PMS_P2;Temp;Humidity;BMP_temperature;BMP_pressure;BME280_temperature;BME280_humidity;BME280_pressure;Samples;Min_cycle;Max_cycle;Signal;HPM_P1;HPM_P2
2023/01/24 00:00:10;;;;;;;37.03;14.37;;;0.20;99.90;;;;;;4180180;28;20184;-65
2023/01/24 00:02:11;;;;;;;43.03;16.57;;;0.20;99.90;;;;;;4162864;28;20274;-65
2023/01/24 00:04:12;;;;;;;75.17;20.67;;;0.20;99.90;;;;;;4180521;28;20419;-65
2023/01/24 00:06:12;;;;;;;74.27;20.63;;;0.20;99.90;;;;;;4180913;28;20647;-65
2023/01/24 00:08:18;;;;;;;42.80;15.83;;;0.10;99.90;;;;;;4162791;28;20707;-65
2023/01/24 00:10:19;;;;;;;39.83;15.30;;;0.20;99.90;;;;;;4162318;28;20202;-65
2023/01/24 00:12:20;;;;;;;48.27;14.87;;;0.20;99.90;;;;;;4180891;28;20436;-65
2023/01/24 00:14:20;;;;;;;51.50;17.60;;;0.00;99.90;;;;;;4180834;28;20260;-64
2023/01/24 00:16:22;;;;;;;43.73;15.17;;;0.10;99.90;;;;;;4180818;28;20650;-63
2023/01/24 00:18:22;;;;;;;41.93;16.97;;;0.10;99.90;;;;;;4180659;28;20207;-64
2023/01/24 00:20:23;;;;;;;36.43;15.37;;;0.20;99.90;;;;;;4179732;28;20426;-64
2023/01/24 00:22:24;;;;;;;42.43;16.80;;;0.20;99.90;;;;;;4180931;28;20223;-64
2023/01/24 00:24:26;;;;;;;37.03;14.83;;;0.30;99.90;;;;;;4163192;28;20605;-64
2023/01/24 00:26:26;;;;;;;46.13;16.37;;;0.20;99.90;;;;;;4162781;28;20185;-66
2023/01/24 00:28:27;;;;;;;42.67;16.40;;;0.10;99.90;;;;;;4180457;28;20431;-64
2023/01/24 00:30:28;;;;;;;54.83;18.93;;;0.10;99.90;;;;;;4179409;28;20208;-64
2023/01/24 00:32:28;;;;;;;33.70;15.77;;;0.10;99.90;;;;;;4179893;28;20223;-64
2023/01/24 00:34:29;;;;;;;41.10;16.60;;;0.20;99.90;;;;;;4180195;28;20213;-64
2023/01/24 00:36:30;;;;;;;34.03;14.40;;;0.20;99.90;;;;;;4179929;28;20187;-64
2023/01/24 00:38:31;;;;;;;144.20;28.00;;;0.40;99.90;;;;;;4179856;28;20734;-64
2023/01/24 00:40:32;;;;;;;31.07;14.30;;;0.30;99.90;;;;;;4179596;28;20565;-64
2023/01/24 00:42:32;;;;;;;45.53;15.07;;;0.20;99.90;;;;;;4180001;28;20492;-64
2023/01/24 00:44:33;;;;;;;34.33;14.50;;;0.20;99.90;;;;;;4180045;28;20215;-64
2023/01/24 00:46:33;;;;;;;36.60;16.00;;;0.30;99.90;;;;;;4180118;28;20185;-64
2023/01/24 00:48:34;;;;;;;37.90;15.10;;;0.20;99.90;;;;;;4162300;28;20583;-64
2023/01/24 00:50:35;;;;;;;37.33;15.97;;;0.10;99.90;;;;;;4179455;28;20213;-64
2023/01/24 00:52:36;;;;;;;41.73;14.87;;;0.10;99.90;;;;;;4179802;28;20192;-64
2023/01/24 00:54:37;;;;;;;68.43;18.43;;;0.10;99.90;;;;;;4162226;28;20203;-64
2023/01/24 00:56:37;;;;;;;43.40;16.17;;;0.20;99.90;;;;;;4179846;28;20255;-64
2023/01/24 00:58:38;;;;;;;49.77;17.20;;;0.20;99.90;;;;;;4169028;28;20181;-64
2023/01/24 01:00:39;;;;;;;36.90;15.27;;;0.30;99.90;;;;;;4162630;28;20189;-64
2023/01/24 01:02:40;;;;;;;51.43;16.87;;;0.40;99.90;;;;;;4163364;28;20195;-64
2023/01/24 01:04:41;;;;;;;48.77;15.93;;;0.40;99.90;;;;;;4136777;28;20979;-64
2023/01/24 01:06:44;;;;;;;114.10;21.90;;;0.40;99.90;;;;;;4178212;28;20188;-64
2023/01/24 01:08:45;;;;;;;65.87;16.57;;;0.30;99.90;;;;;;4179742;28;20190;-66
2023/01/24 01:10:45;;;;;;;49.80;19.17;;;0.20;99.90;;;;;;4178908;28;20461;-65
2023/01/24 01:12:46;;;;;;;39.70;15.33;;;0.10;99.90;;;;;;4179810;28;20193;-65
2023/01/24 01:14:47;;;;;;;32.30;13.67;;;0.10;99.90;;;;;;4179430;28;20293;-65
2023/01/24 01:16:47;;;;;;;55.97;18.33;;;0.10;99.90;;;;;;4178971;28;20677;-65
2023/01/24 01:18:53;;;;;;;105.13;19.33;;;0.20;99.90;;;;;;4179336;28;20259;-65
2023/01/24 01:20:53;;;;;;;49.00;15.70;;;0.10;99.90;;;;;;4178871;28;20192;-65
2023/01/24 01:22:54;;;;;;;44.33;16.47;;;0.00;99.90;;;;;;4179593;28;20434;-65
2023/01/24 01:24:55;;;;;;;46.93;17.00;;;0.00;99.90;;;;;;4179645;28;20204;-65
2023/01/24 01:26:55;;;;;;;43.57;15.77;;;0.20;99.90;;;;;;4179503;28;20187;-65
2023/01/24 01:28:56;;;;;;;74.87;21.53;;;0.10;99.90;;;;;;4179291;28;20192;-65
2023/01/24 01:30:57;;;;;;;61.50;15.70;;;0.30;99.90;;;;;;4178415;28;20234;-65
2023/01/24 01:32:58;;;;;;;39.90;16.23;;;0.20;99.90;;;;;;4178088;28;20600;-65
2023/01/24 01:34:58;;;;;;;52.53;15.73;;;0.30;99.90;;;;;;4179280;28;20448;-65
2023/01/24 01:36:59;;;;;;;37.17;13.70;;;0.30;99.90;;;;;;4179555;28;20254;-65
2023/01/24 01:39:00;;;;;;;35.30;14.07;;;0.30;99.90;;;;;;4179104;28;20180;-65
2023/01/24 01:41:00;;;;;;;43.60;15.50;;;0.40;99.90;;;;;;4178606;28;20196;-65
2023/01/24 01:43:01;;;;;;;88.03;16.13;;;0.30;99.90;;;;;;4179008;28;20184;-65
2023/01/24 01:45:44;;;;;;;44.27;15.17;;;0.30;99.90;;;;;;4179293;28;20287;-65
2023/01/24 01:47:44;;;;;;;41.10;16.67;;;0.30;99.90;;;;;;4177851;28;20184;-65
2023/01/24 01:49:57;;;;;;;30.80;13.07;;;0.40;99.90;;;;;;4177491;28;20541;-66
2023/01/24 01:52:03;;;;;;;41.97;15.33;;;0.30;99.90;;;;;;4178240;28;20200;-66
2023/01/24 01:54:19;;;;;;;104.90;20.60;;;0.40;99.90;;;;;;4178189;28;20435;-66
2023/01/24 01:56:48;;;;;;;43.33;14.23;;;0.40;99.90;;;;;;4178669;28;20429;-64
2023/01/24 01:58:49;;;;;;;72.43;19.17;;;0.30;99.90;;;;;;4178838;28;20412;-66
2023/01/24 02:00:50;;;;;;;37.20;12.60;;;0.20;99.90;;;;;;4177614;28;20422;-63
2023/01/24 02:03:37;;;;;;;39.83;14.47;;;0.20;99.90;;;;;;4177940;28;20194;-64
2023/01/24 02:05:25;;;;;;;47.20;16.30;;;0.40;99.90;;;;;;4178460;28;20452;-64
2023/01/24 02:07:31;;;;;;;55.80;15.47;;;0.40;99.90;;;;;;4178477;28;20423;-64
2023/01/24 02:09:40;;;;;;;36.33;13.73;;;0.50;99.90;;;;;;4178273;28;20431;-64
2023/01/24 02:11:41;;;;;;;36.50;12.63;;;0.50;99.90;;;;;;4177793;28;20463;-64
2023/01/24 02:13:43;;;;;;;41.47;16.03;;;0.50;99.90;;;;;;4179948;28;20428;-64
2023/01/24 02:16:04;;;;;;;36.40;14.27;;;0.50;99.90;;;;;;4179389;28;20494;-64
2023/01/24 02:18:08;;;;;;;37.57;14.00;;;0.40;99.90;;;;;;4179054;28;21099;-64
2023/01/24 02:20:39;;;;;;;49.43;15.57;;;0.30;99.90;;;;;;4177215;28;20451;-64
2023/01/24 02:23:04;;;;;;;85.20;19.87;;;0.40;99.90;;;;;;4177756;28;20427;-64
2023/01/24 02:25:14;;;;;;;35.07;13.60;;;0.50;99.90;;;;;;4179249;28;21109;-64
2023/01/24 02:27:15;;;;;;;43.93;12.63;;;0.50;99.90;;;;;;4179298;28;20473;-64
2023/01/24 02:29:16;;;;;;;52.57;16.20;;;0.50;99.90;;;;;;4180212;28;20428;-64
2023/01/24 02:31:17;;;;;;;44.27;13.93;;;0.50;99.90;;;;;;4181465;28;20211;-64
2023/01/24 02:33:20;;;;;;;127.87;21.07;;;0.30;99.90;;;;;;4182233;28;20891;-64
2023/01/24 02:35:32;;;;;;;48.33;14.47;;;0.20;99.90;;;;;;4182297;28;20196;-64
2023/01/24 02:37:36;;;;;;;65.97;14.93;;;0.20;99.90;;;;;;4180563;28;20431;-64
2023/01/24 02:39:56;;;;;;;73.17;17.10;;;0.30;99.90;;;;;;4180781;28;20424;-64
2023/01/24 02:42:26;;;;;;;38.63;14.07;;;0.20;99.90;;;;;;4180883;28;20419;-64
2023/01/24 02:44:42;;;;;;;32.67;13.20;;;0.20;99.90;;;;;;4179380;28;20648;-64
2023/01/24 02:46:44;;;;;;;106.47;19.00;;;0.10;99.90;;;;;;4181980;28;20438;-64
2023/01/24 02:48:45;;;;;;;34.37;12.73;;;0.10;99.90;;;;;;4182182;28;20423;-64
2023/01/24 02:55:24;;;;;;;30.63;11.63;;;0.10;99.90;;;;;;4181620;28;20477;-64
2023/01/24 02:59:44;;;;;;;41.57;13.97;;;0.20;99.90;;;;;;4181325;28;20440;-64
2023/01/24 03:01:45;;;;;;;54.80;14.40;;;0.10;99.90;;;;;;4170686;28;20460;-64
2023/01/24 03:03:46;;;;;;;59.23;18.13;;;0.10;99.90;;;;;;4173377;28;20200;-64
2023/01/24 03:05:56;;;;;;;30.40;12.33;;;0.10;99.90;;;;;;4180541;28;20204;-64
2023/01/24 03:07:56;;;;;;;31.10;10.83;;;0.10;99.90;;;;;;4181834;28;21190;-64
2023/01/24 03:09:57;;;;;;;50.53;15.73;;;0.10;99.90;;;;;;4181007;28;20431;-64
2023/01/24 03:35:22;;;;;;;50.80;14.07;;;0.30;99.90;;;;;;4181702;28;20582;-64
2023/01/24 03:39:58;;;;;;;38.20;14.63;;;0.20;99.90;;;;;;4180555;28;20410;-64
2023/01/24 03:41:59;;;;;;;33.80;12.83;;;0.10;99.90;;;;;;4181517;28;20460;-64
2023/01/24 03:44:00;;;;;;;123.00;22.30;;;0.00;99.90;;;;;;4181359;28;20921;-64
2023/01/24 03:46:00;;;;;;;90.87;18.33;;;0.00;99.90;;;;;;4179903;28;20657;-64
2023/01/24 03:48:12;;;;;;;118.23;17.57;;;0.00;99.90;;;;;;4180059;28;20184;-64
2023/01/24 03:52:32;;;;;;;34.03;10.83;;;0.00;99.90;;;;;;4181030;28;21066;-64
2023/01/24 03:54:33;;;;;;;36.20;13.53;;;0.10;99.90;;;;;;4166848;28;20451;-64
2023/01/24 03:56:34;;;;;;;36.30;13.33;;;0.20;99.90;;;;;;4164681;28;20196;-64
2023/01/24 03:58:34;;;;;;;36.77;12.20;;;0.30;99.90;;;;;;4164223;28;20209;-64
2023/01/24 04:00:36;;;;;;;47.20;14.17;;;0.40;99.90;;;;;;4163842;28;20656;-64
2023/01/24 04:02:36;;;;;;;31.83;11.57;;;0.30;99.90;;;;;;4164331;28;20287;-64
2023/01/24 04:06:56;;;;;;;55.03;15.10;;;0.00;99.90;;;;;;4180864;28;20185;-64
2023/01/24 04:08:57;;;;;;;146.43;27.17;;;-0.10;99.90;;;;;;4180623;28;20913;-64
2023/01/24 04:10:58;;;;;;;32.70;11.60;;;-0.10;99.90;;;;;;4180303;28;20904;-64
2023/01/24 04:12:58;;;;;;;43.37;11.27;;;-0.20;99.90;;;;;;4162886;28;20618;-64
2023/01/24 04:15:00;;;;;;;28.63;12.20;;;0.00;99.90;;;;;;4180884;28;20210;-64
2023/01/24 04:17:00;;;;;;;41.33;13.80;;;0.00;99.90;;;;;;4180567;28;20207;-64
2023/01/24 04:19:01;;;;;;;34.67;12.13;;;0.00;99.90;;;;;;4180718;28;20424;-63
2023/01/24 04:21:03;;;;;;;29.40;12.37;;;0.10;99.90;;;;;;4179892;28;20601;-63
2023/01/24 04:23:07;;;;;;;32.43;12.20;;;0.20;99.90;;;;;;4180360;28;20245;-64
2023/01/24 04:25:09;;;;;;;27.87;12.53;;;0.20;99.90;;;;;;4178405;28;20483;-64
2023/01/24 04:27:10;;;;;;;32.53;12.93;;;0.30;99.90;;;;;;4162678;28;20965;-64
2023/01/24 04:29:11;;;;;;;30.33;12.10;;;0.30;99.90;;;;;;4180373;28;20458;-65
2023/01/24 04:31:12;;;;;;;34.30;12.67;;;0.30;99.90;;;;;;4179789;28;20500;-64
2023/01/24 04:33:12;;;;;;;26.67;11.60;;;0.30;99.90;;;;;;4180214;28;20185;-64
2023/01/24 04:35:20;;;;;;;23.90;10.53;;;0.10;99.90;;;;;;4180526;28;20208;-64
2023/01/24 04:37:21;;;;;;;23.70;11.00;;;0.20;99.90;;;;;;4180091;28;20180;-64
2023/01/24 04:39:22;;;;;;;25.50;10.93;;;0.30;99.90;;;;;;4180213;28;20459;-65
2023/01/24 04:41:22;;;;;;;31.30;13.53;;;0.40;99.90;;;;;;4179466;28;20212;-65
2023/01/24 04:43:23;;;;;;;23.80;11.10;;;0.40;99.90;;;;;;4180298;28;20459;-65
2023/01/24 04:45:25;;;;;;;22.77;11.20;;;0.50;99.90;;;;;;4162403;28;20213;-65
2023/01/24 04:47:25;;;;;;;29.63;12.73;;;0.50;99.90;;;;;;4180055;28;20189;-65
2023/01/24 04:49:26;;;;;;;31.97;16.53;;;0.40;99.90;;;;;;4180085;28;20535;-65
2023/01/24 04:51:27;;;;;;;25.30;12.20;;;0.30;99.90;;;;;;4178378;28;20205;-65
2023/01/24 04:53:29;;;;;;;23.73;10.93;;;0.30;99.90;;;;;;4179985;28;20176;-65
2023/01/24 04:55:30;;;;;;;34.43;16.37;;;0.40;99.90;;;;;;4180084;28;20200;-65
2023/01/24 04:57:30;;;;;;;29.00;12.47;;;0.40;99.90;;;;;;4179789;28;20491;-65
2023/01/24 04:59:31;;;;;;;27.67;11.40;;;0.40;99.90;;;;;;4180451;28;20184;-64
2023/01/24 05:01:32;;;;;;;25.53;13.23;;;0.40;99.90;;;;;;4179797;28;20842;-64
2023/01/24 05:03:32;;;;;;;26.50;11.70;;;0.20;99.90;;;;;;4169753;28;20201;-64
2023/01/24 05:05:33;;;;;;;29.00;14.50;;;0.30;99.90;;;;;;4171364;28;20213;-64
2023/01/24 05:07:34;;;;;;;25.60;12.50;;;0.40;99.90;;;;;;4180288;28;20189;-64
2023/01/24 05:09:35;;;;;;;26.33;12.13;;;0.40;99.90;;;;;;4179008;28;20264;-64
2023/01/24 05:11:36;;;;;;;29.30;14.40;;;0.50;99.90;;;;;;4179676;28;20200;-65
2023/01/24 05:13:37;;;;;;;28.03;14.10;;;0.50;99.90;;;;;;4180352;28;20182;-66
2023/01/24 05:15:38;;;;;;;31.83;13.60;;;0.60;99.90;;;;;;4180174;28;20940;-65
2023/01/24 05:17:39;;;;;;;24.43;11.97;;;0.50;99.90;;;;;;4180166;28;20267;-65
2023/01/24 05:19:39;;;;;;;28.57;12.70;;;0.50;99.90;;;;;;4162184;28;20455;-65
2023/01/24 05:21:40;;;;;;;25.43;12.03;;;0.50;99.90;;;;;;4178598;28;20178;-64
2023/01/24 05:23:41;;;;;;;29.53;12.53;;;0.50;99.90;;;;;;4180732;28;20217;-64
2023/01/24 05:25:42;;;;;;;21.83;9.97;;;0.50;99.90;;;;;;4180327;28;20286;-65
2023/01/24 05:27:43;;;;;;;30.33;12.50;;;0.50;99.90;;;;;;4180131;28;20514;-65
2023/01/24 05:29:44;;;;;;;31.87;12.63;;;0.50;99.90;;;;;;4179703;28;20181;-65
2023/01/24 05:31:45;;;;;;;30.77;12.53;;;0.50;99.90;;;;;;4179854;28;20461;-65
2023/01/24 05:33:45;;;;;;;29.07;12.00;;;0.40;99.90;;;;;;4180537;28;20227;-65
2023/01/24 05:35:46;;;;;;;27.63;12.33;;;0.40;99.90;;;;;;4179943;28;20209;-65
2023/01/24 05:37:47;;;;;;;27.30;13.80;;;0.30;99.90;;;;;;4180247;28;20235;-65
2023/01/24 05:39:47;;;;;;;23.83;11.53;;;0.30;99.90;;;;;;4179665;28;20187;-65
2023/01/24 05:41:48;;;;;;;20.03;10.17;;;0.40;99.90;;;;;;4180244;28;20184;-65
2023/01/24 05:43:49;;;;;;;22.03;11.30;;;0.40;99.90;;;;;;4180348;28;20190;-65
2023/01/24 05:45:50;;;;;;;24.00;11.43;;;0.40;99.90;;;;;;4179523;28;20618;-65
2023/01/24 05:47:51;;;;;;;24.40;10.53;;;0.50;99.90;;;;;;4179785;28;20433;-65
2023/01/24 05:49:51;;;;;;;24.07;11.73;;;0.30;99.90;;;;;;4178940;28;20196;-65
2023/01/24 05:51:52;;;;;;;20.30;9.13;;;0.30;99.90;;;;;;4180177;28;20256;-66
2023/01/24 05:53:53;;;;;;;23.73;11.13;;;0.40;99.90;;;;;;4178447;28;20235;-66
2023/01/24 05:56:05;;;;;;;21.10;10.50;;;0.40;99.90;;;;;;4179168;28;20201;-66
2023/01/24 05:58:06;;;;;;;21.90;10.97;;;0.50;99.90;;;;;;4179472;28;20169;-66
2023/01/24 06:00:08;;;;;;;20.83;10.20;;;0.50;99.90;;;;;;4178455;28;20419;-65
2023/01/24 06:02:09;;;;;;;20.80;11.00;;;0.40;99.90;;;;;;4178030;28;20707;-65
2023/01/24 06:04:10;;;;;;;33.43;17.70;;;0.40;99.90;;;;;;4172946;28;21043;-65
2023/01/24 06:06:12;;;;;;;28.20;11.63;;;0.40;99.90;;;;;;4182121;28;20433;-66
2023/01/24 06:08:14;;;;;;;21.23;10.57;;;0.40;99.90;;;;;;4164362;28;20199;-65
2023/01/24 06:10:15;;;;;;;28.43;12.10;;;0.50;99.90;;;;;;4181783;28;20452;-64
2023/01/24 06:12:15;;;;;;;21.73;10.67;;;0.50;99.90;;;;;;4182488;28;20434;-65
2023/01/24 06:14:16;;;;;;;24.77;10.80;;;0.40;99.90;;;;;;4182789;28;20429;-66
2023/01/24 06:16:20;;;;;;;21.93;11.13;;;0.40;99.90;;;;;;4164714;28;20181;-66
2023/01/24 06:18:21;;;;;;;26.70;13.77;;;0.40;99.90;;;;;;4182238;28;20823;-66
2023/01/24 06:20:22;;;;;;;30.23;12.67;;;0.50;99.90;;;;;;4181439;28;20426;-65
2023/01/24 06:22:36;;;;;;;28.30;13.60;;;0.40;99.90;;;;;;4182311;28;20200;-65
2023/01/24 06:24:37;;;;;;;27.17;12.63;;;0.60;99.90;;;;;;4164318;28;20198;-65
2023/01/24 06:26:38;;;;;;;21.33;11.37;;;0.60;99.90;;;;;;4182215;28;20438;-65
2023/01/24 06:28:39;;;;;;;20.23;11.20;;;0.50;99.90;;;;;;4182080;28;20460;-65
2023/01/24 06:30:43;;;;;;;28.40;12.17;;;0.60;99.90;;;;;;4163843;28;20464;-65
2023/01/24 06:33:10;;;;;;;23.63;11.43;;;0.50;99.90;;;;;;4164394;28;20186;-65
2023/01/24 06:35:28;;;;;;;34.43;10.83;;;0.40;99.90;;;;;;4182164;28;20461;-65
2023/01/24 06:37:43;;;;;;;21.50;10.33;;;0.30;99.90;;;;;;4164517;28;20417;-66
2023/01/24 06:39:51;;;;;;;28.33;12.20;;;0.30;99.90;;;;;;4181300;28;20508;-65
2023/01/24 06:41:52;;;;;;;23.50;10.43;;;0.20;99.90;;;;;;4181831;28;20445;-65
2023/01/24 06:43:53;;;;;;;28.43;11.53;;;0.40;99.90;;;;;;4182058;28;20431;-66
2023/01/24 06:45:55;;;;;;;21.10;11.07;;;0.40;99.90;;;;;;4164049;28;20206;-65
2023/01/24 06:47:57;;;;;;;26.63;11.63;;;0.40;99.90;;;;;;4181480;28;20488;-65
2023/01/24 06:49:57;;;;;;;21.93;10.63;;;0.40;99.90;;;;;;4181100;28;20518;-65
2023/01/24 06:51:58;;;;;;;23.53;11.60;;;0.40;99.90;;;;;;4181628;28;20502;-66
2023/01/24 06:54:00;;;;;;;25.70;12.03;;;0.40;99.90;;;;;;4181640;28;20191;-66
2023/01/24 06:56:00;;;;;;;21.00;11.63;;;0.40;99.90;;;;;;4181592;28;20527;-66
2023/01/24 06:58:03;;;;;;;27.40;11.57;;;0.50;99.90;;;;;;4181257;28;20422;-65
2023/01/24 07:00:05;;;;;;;33.67;13.17;;;0.60;99.90;;;;;;4151195;28;20190;-66
2023/01/24 07:02:06;;;;;;;18.10;9.77;;;0.70;99.90;;;;;;4147424;28;20441;-65
2023/01/24 07:04:07;;;;;;;23.43;12.83;;;0.70;99.90;;;;;;4147133;28;20440;-65
2023/01/24 07:06:08;;;;;;;25.00;12.93;;;0.60;99.90;;;;;;4165140;28;20923;-65
2023/01/24 07:08:08;;;;;;;27.93;11.33;;;0.40;99.90;;;;;;4171729;28;20195;-65
2023/01/24 07:10:10;;;;;;;18.40;9.90;;;0.30;99.90;;;;;;4180481;28;20188;-67
2023/01/24 07:12:10;;;;;;;38.10;12.87;;;0.40;99.90;;;;;;4180983;28;20212;-65
2023/01/24 07:14:11;;;;;;;31.07;13.57;;;0.30;99.90;;;;;;4180568;28;20435;-65
2023/01/24 07:16:12;;;;;;;38.97;11.07;;;0.30;99.90;;;;;;4180911;28;20188;-65
2023/01/24 07:18:16;;;;;;;21.27;11.37;;;0.20;99.90;;;;;;4180815;28;20196;-64
2023/01/24 07:20:17;;;;;;;25.10;11.53;;;0.20;99.90;;;;;;4180674;28;20216;-64
2023/01/24 07:22:18;;;;;;;20.20;9.93;;;0.50;99.90;;;;;;4180914;28;20482;-65
2023/01/24 07:24:25;;;;;;;24.90;11.97;;;0.70;99.90;;;;;;4181160;28;20425;-65
2023/01/24 07:26:26;;;;;;;22.30;10.70;;;0.80;99.90;;;;;;4179692;28;20423;-65
2023/01/24 07:28:27;;;;;;;24.77;12.50;;;0.90;99.90;;;;;;4179293;28;20465;-65
2023/01/24 07:30:28;;;;;;;26.40;12.43;;;0.80;99.90;;;;;;4180042;28;20419;-65
2023/01/24 07:32:29;;;;;;;24.27;11.40;;;0.80;99.90;;;;;;4179360;28;20199;-65
2023/01/24 07:34:30;;;;;;;22.93;12.93;;;0.90;99.90;;;;;;4180990;28;20477;-65
2023/01/24 07:36:30;;;;;;;23.50;11.40;;;0.90;99.90;;;;;;4180857;28;20211;-65
2023/01/24 07:38:31;;;;;;;27.93;11.90;;;0.80;99.90;;;;;;4180586;28;20189;-65
2023/01/24 07:40:32;;;;;;;21.53;10.97;;;0.70;99.90;;;;;;4179900;28;20190;-64
2023/01/24 07:42:32;;;;;;;29.30;11.63;;;0.90;99.90;;;;;;4180583;28;20197;-64
2023/01/24 07:44:33;;;;;;;20.20;10.77;;;0.90;99.90;;;;;;4180410;28;20200;-65
2023/01/24 07:46:34;;;;;;;25.10;11.33;;;1.00;99.90;;;;;;4180755;28;20211;-64
2023/01/24 07:48:35;;;;;;;22.00;10.47;;;1.00;99.90;;;;;;4179136;28;20763;-65
2023/01/24 07:50:36;;;;;;;24.87;11.17;;;1.00;99.90;;;;;;4179772;28;20557;-65
2023/01/24 07:52:36;;;;;;;23.83;11.80;;;1.00;99.90;;;;;;4180868;28;20242;-66
2023/01/24 07:54:37;;;;;;;23.20;10.23;;;1.10;99.90;;;;;;4180703;28;20228;-65
2023/01/24 07:56:38;;;;;;;24.27;11.23;;;1.00;99.90;;;;;;4180447;28;20189;-65
2023/01/24 07:58:38;;;;;;;24.80;10.47;;;1.00;99.90;;;;;;4180335;28;20213;-65
2023/01/24 08:00:39;;;;;;;25.87;10.00;;;0.90;99.90;;;;;;4179838;28;20231;-64
2023/01/24 08:02:41;;;;;;;23.97;11.20;;;0.90;99.90;;;;;;4179122;28;20189;-64
2023/01/24 08:04:42;;;;;;;21.17;10.07;;;1.00;99.90;;;;;;4180547;28;20246;-64
2023/01/24 08:07:16;;;;;;;20.53;10.50;;;1.00;99.90;;;;;;4178330;28;20432;-64
2023/01/24 08:09:03;;;;;;;16.87;8.83;;;1.00;99.90;;;;;;4178523;28;20227;-64
2023/01/24 08:11:04;;;;;;;19.30;8.97;;;0.90;99.90;;;;;;4179266;28;20976;-64
2023/01/24 08:13:05;;;;;;;19.97;10.00;;;0.90;99.90;;;;;;4180191;28;20183;-64
2023/01/24 08:15:06;;;;;;;19.17;9.27;;;0.90;99.90;;;;;;4179103;28;20701;-66
2023/01/24 08:17:07;;;;;;;16.70;9.23;;;1.00;99.90;;;;;;4178899;28;20242;-64
2023/01/24 08:19:07;;;;;;;18.63;9.30;;;1.00;99.90;;;;;;4174478;28;20428;-66
2023/01/24 08:21:08;;;;;;;17.87;9.27;;;1.10;99.90;;;;;;4155451;28;20589;-65
2023/01/24 08:23:09;;;;;;;24.07;10.87;;;1.00;99.90;;;;;;4180304;28;20619;-64
2023/01/24 08:25:10;;;;;;;97.70;11.00;;;1.00;99.90;;;;;;4180385;28;20206;-65
2023/01/24 08:27:11;;;;;;;16.97;9.47;;;1.00;99.90;;;;;;4180229;28;20184;-65
2023/01/24 08:29:12;;;;;;;15.77;8.23;;;1.10;99.90;;;;;;4180652;28;20433;-65
2023/01/24 08:31:13;;;;;;;18.67;9.77;;;1.30;99.90;;;;;;4179849;28;20693;-64
2023/01/24 08:33:17;;;;;;;17.40;8.83;;;1.30;99.90;;;;;;4180310;28;20460;-64
2023/01/24 08:35:18;;;;;;;17.97;8.23;;;1.30;99.90;;;;;;4162335;28;20345;-65
2023/01/24 08:37:18;;;;;;;15.30;9.23;;;1.30;99.90;;;;;;4180130;28;20432;-64
2023/01/24 08:39:19;;;;;;;16.07;8.57;;;1.30;99.90;;;;;;4180180;28;20671;-65
2023/01/24 08:41:20;;;;;;;16.13;8.10;;;1.30;99.90;;;;;;4161936;28;20176;-65
2023/01/24 08:43:20;;;;;;;12.90;7.77;;;1.30;99.90;;;;;;4180419;28;20226;-65
2023/01/24 08:45:21;;;;;;;16.80;8.57;;;1.30;99.90;;;;;;4180521;28;20226;-65
2023/01/24 08:47:21;;;;;;;18.30;8.90;;;1.30;99.90;;;;;;4180061;28;20221;-65
2023/01/24 08:49:22;;;;;;;18.23;9.47;;;1.30;99.90;;;;;;4180142;28;20244;-65
2023/01/24 08:51:24;;;;;;;18.77;9.87;;;1.50;99.90;;;;;;4179526;28;20206;-65
2023/01/24 08:53:24;;;;;;;16.47;9.23;;;1.50;99.90;;;;;;4180148;28;20183;-65
2023/01/24 08:55:25;;;;;;;17.93;9.47;;;1.70;99.90;;;;;;4180304;28;20947;-65
2023/01/24 08:57:26;;;;;;;14.53;8.73;;;1.80;99.90;;;;;;4180177;28;20283;-65
2023/01/24 08:59:26;;;;;;;16.50;8.00;;;1.80;99.90;;;;;;4180191;28;20180;-65
2023/01/24 09:01:27;;;;;;;18.93;10.20;;;1.80;99.90;;;;;;4152462;28;20536;-65
2023/01/24 09:03:28;;;;;;;23.23;9.67;;;1.70;99.90;;;;;;4163528;28;20277;-65
2023/01/24 09:05:30;;;;;;;16.20;8.40;;;1.60;99.90;;;;;;4164003;28;20206;-65
2023/01/24 09:07:30;;;;;;;17.73;9.60;;;1.60;99.90;;;;;;4145990;28;20194;-65
2023/01/24 09:09:31;;;;;;;18.33;8.90;;;1.60;99.90;;;;;;4163767;28;20428;-65
2023/01/24 09:11:32;;;;;;;42.07;12.10;;;1.60;99.90;;;;;;4162711;28;20207;-65
2023/01/24 09:13:32;;;;;;;21.30;10.43;;;1.70;99.90;;;;;;4154585;28;20190;-65
2023/01/24 09:15:33;;;;;;;16.77;9.10;;;1.60;99.90;;;;;;4178771;28;20287;-65
2023/01/24 09:17:34;;;;;;;24.73;9.77;;;1.60;99.90;;;;;;4180013;28;20673;-65
2023/01/24 09:19:34;;;;;;;20.40;9.63;;;1.60;99.90;;;;;;4180471;28;20678;-64
2023/01/24 09:21:35;;;;;;;22.73;10.77;;;1.60;99.90;;;;;;4179344;28;20180;-67
2023/01/24 09:23:36;;;;;;;20.10;9.50;;;1.70;99.90;;;;;;4180122;28;20176;-65
2023/01/24 09:25:37;;;;;;;38.87;11.03;;;1.80;99.90;;;;;;4178866;28;20213;-64
2023/01/24 09:27:40;;;;;;;34.03;10.97;;;1.80;99.90;;;;;;4178353;28;20191;-64
2023/01/24 09:29:40;;;;;;;26.03;10.87;;;1.70;99.90;;;;;;4179613;28;20269;-65
2023/01/24 09:31:41;;;;;;;27.93;10.87;;;1.70;99.90;;;;;;4179228;28;21230;-65
2023/01/24 09:33:42;;;;;;;22.97;9.90;;;1.60;99.90;;;;;;4179788;28;20233;-65
2023/01/24 09:35:52;;;;;;;31.70;11.50;;;1.60;99.90;;;;;;4179691;28;20202;-65
2023/01/24 09:37:53;;;;;;;45.80;13.87;;;1.40;99.90;;;;;;4179290;28;20200;-64
2023/01/24 09:39:55;;;;;;;25.23;8.87;;;1.30;99.90;;;;;;4179160;28;20423;-64
2023/01/24 09:42:02;;;;;;;31.97;11.57;;;1.30;99.90;;;;;;4179669;28;20188;-64
2023/01/24 09:44:15;;;;;;;35.83;11.37;;;1.10;99.90;;;;;;4179778;28;20429;-64
2023/01/24 09:46:49;;;;;;;25.27;10.63;;;1.20;99.90;;;;;;4178453;28;20404;-64
2023/01/24 09:49:00;;;;;;;26.90;11.07;;;0.90;99.90;;;;;;4175907;28;20442;-64
2023/01/24 09:51:09;;;;;;;29.60;10.30;;;1.10;99.90;;;;;;4177496;28;20464;-64
2023/01/24 09:53:23;;;;;;;31.87;10.53;;;1.00;99.90;;;;;;4178261;28;20526;-64
2023/01/24 09:55:40;;;;;;;51.03;14.40;;;1.00;99.90;;;;;;4178139;28;20449;-65
2023/01/24 09:58:04;;;;;;;27.83;10.60;;;1.00;99.90;;;;;;4178450;28;20437;-64
2023/01/24 10:00:17;;;;;;;73.50;16.53;;;1.10;99.90;;;;;;4177634;28;20411;-64
2023/01/24 10:02:20;;;;;;;36.93;12.53;;;1.10;99.90;;;;;;4179366;28;20775;-64
2023/01/24 10:04:35;;;;;;;39.47;10.50;;;1.30;99.90;;;;;;4179123;28;20866;-64
2023/01/24 10:06:39;;;;;;;34.60;11.93;;;1.50;99.90;;;;;;4178167;28;20408;-64
2023/01/24 10:09:07;;;;;;;18.40;9.13;;;1.50;99.90;;;;;;4178014;28;20512;-64
2023/01/24 10:11:57;;;;;;;26.70;11.17;;;1.50;99.90;;;;;;4177520;28;20834;-64
2023/01/24 10:14:49;;;;;;;62.23;13.90;;;1.30;99.90;;;;;;4179366;28;20420;-64
2023/01/24 10:17:31;;;;;;;20.97;9.50;;;1.30;99.90;;;;;;4168335;28;20427;-64
2023/01/24 10:20:16;;;;;;;20.10;9.37;;;1.40;99.90;;;;;;4176067;28;20443;-64
2023/01/24 10:22:49;;;;;;;25.20;10.73;;;1.80;99.90;;;;;;4128078;28;20498;-64
2023/01/24 10:25:03;;;;;;;35.73;14.53;;;2.10;99.90;;;;;;4179390;28;20492;-64
2023/01/24 10:27:25;;;;;;;23.33;11.20;;;1.90;99.90;;;;;;4177685;28;20406;-65
2023/01/24 10:29:38;;;;;;;75.03;15.53;;;2.00;99.90;;;;;;4160966;28;20824;-65
2023/01/24 10:31:56;;;;;;;54.07;11.93;;;1.90;99.90;;;;;;4176788;28;20446;-65
2023/01/24 10:34:19;;;;;;;19.53;9.37;;;1.90;99.90;;;;;;4178882;28;20412;-65
2023/01/24 10:36:38;;;;;;;22.50;11.13;;;2.00;99.90;;;;;;4178786;28;20401;-65
2023/01/24 10:38:40;;;;;;;31.87;11.40;;;2.10;99.90;;;;;;4178868;28;20411;-65
2023/01/24 10:40:56;;;;;;;69.87;14.17;;;2.10;99.90;;;;;;4177959;28;20857;-65
2023/01/24 10:43:06;;;;;;;26.30;11.77;;;2.00;99.90;;;;;;4177437;28;20449;-65
2023/01/24 10:45:45;;;;;;;15.20;8.17;;;2.00;99.90;;;;;;4177690;28;20435;-65
2023/01/24 10:48:04;;;;;;;33.37;10.97;;;2.00;99.90;;;;;;4177687;28;20542;-65
2023/01/24 10:50:09;;;;;;;52.73;12.87;;;2.10;99.90;;;;;;4178033;28;20434;-65
2023/01/24 10:52:19;;;;;;;24.73;11.50;;;2.00;99.90;;;;;;4180246;28;20473;-65
2023/01/24 10:54:22;;;;;;;22.50;11.53;;;1.90;99.90;;;;;;4180573;28;21044;-65
2023/01/24 10:56:22;;;;;;;28.93;10.53;;;1.60;99.90;;;;;;4181646;28;20492;-65
2023/01/24 10:58:57;;;;;;;32.90;13.90;;;1.60;99.90;;;;;;4181678;28;20421;-65
2023/01/24 11:01:04;;;;;;;30.13;12.30;;;1.60;99.90;;;;;;4181258;28;20181;-65
2023/01/24 11:03:22;;;;;;;26.87;10.67;;;1.70;99.90;;;;;;4180163;28;20920;-65
2023/01/24 11:05:26;;;;;;;40.93;16.57;;;1.80;99.90;;;;;;4178819;28;20810;-65
2023/01/24 11:07:31;;;;;;;28.40;13.40;;;1.70;99.90;;;;;;4163545;28;21129;-65
2023/01/24 11:09:34;;;;;;;30.73;13.17;;;1.90;99.90;;;;;;4180037;28;21033;-65
2023/01/24 11:11:46;;;;;;;66.70;17.27;;;2.10;99.90;;;;;;4180324;28;20470;-65
2023/01/24 11:13:46;;;;;;;31.77;11.37;;;2.10;99.90;;;;;;4163490;28;20458;-65
2023/01/24 11:15:51;;;;;;;40.23;12.87;;;2.10;99.90;;;;;;4181206;28;20946;-65
2023/01/24 11:17:56;;;;;;;48.60;11.17;;;2.10;99.90;;;;;;4179788;28;20645;-65